sensor_id;sensor_type;location;lat;lon;timestamp;pressure;altitude;pressure_sealevel;temperature;humidity
74544;BME280;63016;55.030;38.710;2023-05-07T00:01:07;100999.09;;;2.42;43.96
74544;BME280;63016;55.030;38.710;2023-05-07T00:03:32;101011.13;;;2.42;43.79
74544;BME280;63016;55.030;38.710;2023-05-07T00:05:58;101013.53;;;2.45;43.84
74544;BME280;63016;55.030;38.710;2023-05-07T00:08:24;101002.19;;;2.33;43.86
74544;BME280;63016;55.030;38.710;2023-05-07T00:10:49;101021.38;;;2.43;43.84
74544;BME280;63016;55.030;38.710;2023-05-07T00:13:15;101018.84;;;2.42;43.90
74544;BME280;63016;55.030;38.710;2023-05-07T00:15:40;101030.25;;;2.38;44.04
74544;BME280;63016;55.030;38.710;2023-05-07T00:18:06;101013.22;;;2.35;43.57
74544;BME280;63016;55.030;38.710;2023-05-07T00:20:31;101019.03;;;2.39;44.13
74544;BME280;63016;55.030;38.710;2023-05-07T00:22:57;101023.28;;;2.40;44.12
74544;BME280;63016;55.030;38.710;2023-05-07T00:25:23;101017.28;;;2.39;44.08
74544;BME280;63016;55.030;38.710;2023-05-07T00:27:48;101003.44;;;2.26;43.49
74544;BME280;63016;55.030;38.710;2023-05-07T00:30:14;101013.22;;;2.35;43.98
74544;BME280;63016;55.030;38.710;2023-05-07T00:32:39;101015.22;;;2.30;44.42
74544;BME280;63016;55.030;38.710;2023-05-07T00:35:05;101017.97;;;2.27;43.88
74544;BME280;63016;55.030;38.710;2023-05-07T00:37:31;101020.38;;;2.30;43.88
74544;BME280;63016;55.030;38.710;2023-05-07T00:39:56;101027.28;;;2.29;43.74
74544;BME280;63016;55.030;38.710;2023-05-07T00:42:22;101023.09;;;2.27;43.94
74544;BME280;63016;55.030;38.710;2023-05-07T00:44:48;101023.97;;;2.27;44.33
74544;BME280;63016;55.030;38.710;2023-05-07T00:47:14;101025.69;;;2.27;43.58
74544;BME280;63016;55.030;38.710;2023-05-07T00:49:44;101025.88;;;2.24;44.83
74544;BME280;63016;55.030;38.710;2023-05-07T00:52:14;101027.69;;;2.22;45.01
74544;BME280;63016;55.030;38.710;2023-05-07T00:54:42;101027.69;;;2.22;44.55
74544;BME280;63016;55.030;38.710;2023-05-07T00:57:09;101030.34;;;2.20;43.92
74544;BME280;63016;55.030;38.710;2023-05-07T00:59:36;101034.69;;;2.20;44.52
74544;BME280;63016;55.030;38.710;2023-05-07T01:02:01;101033.94;;;2.18;44.00
74544;BME280;63016;55.030;38.710;2023-05-07T01:04:27;101029.03;;;2.13;44.15
74544;BME280;63016;55.030;38.710;2023-05-07T01:06:55;101025.53;;;2.14;44.52
74544;BME280;63016;55.030;38.710;2023-05-07T01:09:23;101016.72;;;2.02;44.38
74544;BME280;63016;55.030;38.710;2023-05-07T01:11:50;101017.25;;;2.09;44.46
74544;BME280;63016;55.030;38.710;2023-05-07T01:14:17;101030.03;;;2.11;44.65
74544;BME280;63016;55.030;38.710;2023-05-07T01:16:43;101029.19;;;2.10;44.25
74544;BME280;63016;55.030;38.710;2023-05-07T01:19:09;101028.47;;;2.08;44.79
74544;BME280;63016;55.030;38.710;2023-05-07T01:21:38;101033.53;;;2.10;44.66
74544;BME280;63016;55.030;38.710;2023-05-07T01:24:04;101032.13;;;2.04;43.97
74544;BME280;63016;55.030;38.710;2023-05-07T01:26:30;101048.13;;;2.09;44.22
74544;BME280;63016;55.030;38.710;2023-05-07T01:28:56;101036.09;;;2.10;44.66
74544;BME280;63016;55.030;38.710;2023-05-07T01:31:22;101039.34;;;2.13;44.59
74544;BME280;63016;55.030;38.710;2023-05-07T01:33:48;101036.00;;;2.11;44.26
74544;BME280;63016;55.030;38.710;2023-05-07T01:36:17;101041.97;;;2.12;44.29
74544;BME280;63016;55.030;38.710;2023-05-07T01:38:43;101039.00;;;2.03;44.51
74544;BME280;63016;55.030;38.710;2023-05-07T01:41:10;101049.13;;;2.06;44.41
74544;BME280;63016;55.030;38.710;2023-05-07T01:43:36;101049.22;;;2.05;44.83
74544;BME280;63016;55.030;38.710;2023-05-07T01:46:02;101051.69;;;2.06;44.13
74544;BME280;63016;55.030;38.710;2023-05-07T01:48:28;101050.97;;;2.04;44.77
74544;BME280;63016;55.030;38.710;2023-05-07T01:50:55;101062.19;;;2.03;44.46
74544;BME280;63016;55.030;38.710;2023-05-07T01:53:20;101058.84;;;2.01;44.98
74544;BME280;63016;55.030;38.710;2023-05-07T01:55:46;101063.25;;;1.99;44.78
74544;BME280;63016;55.030;38.710;2023-05-07T01:58:11;101061.41;;;2.01;44.37
74544;BME280;63016;55.030;38.710;2023-05-07T02:00:37;101068.22;;;2.02;44.56
74544;BME280;63016;55.030;38.710;2023-05-07T02:03:02;101072.47;;;2.03;44.89
74544;BME280;63016;55.030;38.710;2023-05-07T02:05:28;101054.34;;;1.89;44.80
74544;BME280;63016;55.030;38.710;2023-05-07T02:07:53;101076.94;;;2.00;44.36
74544;BME280;63016;55.030;38.710;2023-05-07T02:10:19;101076.69;;;2.04;44.58
74544;BME280;63016;55.030;38.710;2023-05-07T02:12:45;101081.03;;;2.04;45.30
74544;BME280;63016;55.030;38.710;2023-05-07T02:15:10;101076.59;;;2.06;45.12
74544;BME280;63016;55.030;38.710;2023-05-07T02:17:39;101083.69;;;2.18;45.78
74544;BME280;63016;55.030;38.710;2023-05-07T02:20:05;101085.16;;;2.22;45.44
74544;BME280;63016;55.030;38.710;2023-05-07T02:22:32;101092.31;;;2.33;45.38
74544;BME280;63016;55.030;38.710;2023-05-07T02:24:57;101089.25;;;2.42;46.01
74544;BME280;63016;55.030;38.710;2023-05-07T02:27:23;101092.31;;;2.49;45.50
74544;BME280;63016;55.030;38.710;2023-05-07T02:29:48;101092.72;;;2.57;45.44
74544;BME280;63016;55.030;38.710;2023-05-07T02:32:14;101089.13;;;2.60;45.78
74544;BME280;63016;55.030;38.710;2023-05-07T02:34:39;101100.53;;;2.71;46.24
74544;BME280;63016;55.030;38.710;2023-05-07T02:37:05;101100.84;;;2.81;45.91
74544;BME280;63016;55.030;38.710;2023-05-07T02:39:30;101103.31;;;2.82;45.55
74544;BME280;63016;55.030;38.710;2023-05-07T02:41:56;101108.69;;;2.94;45.58
74544;BME280;63016;55.030;38.710;2023-05-07T02:44:21;101105.59;;;3.03;45.84
74544;BME280;63016;55.030;38.710;2023-05-07T02:46:47;101095.28;;;3.03;46.17
74544;BME280;63016;55.030;38.710;2023-05-07T02:49:12;101109.16;;;3.16;45.33
74544;BME280;63016;55.030;38.710;2023-05-07T02:51:38;101104.72;;;3.18;45.57
74544;BME280;63016;55.030;38.710;2023-05-07T02:54:03;101104.72;;;3.18;45.99
74544;BME280;63016;55.030;38.710;2023-05-07T02:56:29;101108.53;;;3.27;45.94
74544;BME280;63016;55.030;38.710;2023-05-07T02:58:55;101104.03;;;3.30;45.79
74544;BME280;63016;55.030;38.710;2023-05-07T03:01:20;101114.91;;;3.35;45.50
74544;BME280;63016;55.030;38.710;2023-05-07T03:03:46;101123.38;;;3.38;45.56
74544;BME280;63016;55.030;38.710;2023-05-07T03:06:11;101112.06;;;3.40;45.39
74544;BME280;63016;55.030;38.710;2023-05-07T03:08:37;101123.88;;;3.44;45.73
74544;BME280;63016;55.030;38.710;2023-05-07T03:11:02;101112.63;;;3.45;45.99
74544;BME280;63016;55.030;38.710;2023-05-07T03:13:28;101121.56;;;3.54;45.82
74544;BME280;63016;55.030;38.710;2023-05-07T03:15:53;101133.28;;;3.59;45.83
74544;BME280;63016;55.030;38.710;2023-05-07T03:18:19;101129.50;;;3.65;46.09
74544;BME280;63016;55.030;38.710;2023-05-07T03:20:45;101100.19;;;3.52;45.68
74544;BME280;63016;55.030;38.710;2023-05-07T03:23:10;101121.59;;;3.68;45.91
74544;BME280;63016;55.030;38.710;2023-05-07T03:25:35;101134.69;;;3.79;45.79
74544;BME280;63016;55.030;38.710;2023-05-07T03:28:01;101131.00;;;3.83;45.37
74544;BME280;63016;55.030;38.710;2023-05-07T03:30:26;101129.63;;;3.78;45.67
74544;BME280;63016;55.030;38.710;2023-05-07T03:32:52;101135.69;;;3.91;45.44
74544;BME280;63016;55.030;38.710;2023-05-07T03:35:18;101142.44;;;3.94;45.80
74544;BME280;63016;55.030;38.710;2023-05-07T03:37:43;101140.56;;;3.96;45.67
74544;BME280;63016;55.030;38.710;2023-05-07T03:40:09;101153.03;;;4.03;45.66
74544;BME280;63016;55.030;38.710;2023-05-07T03:42:35;101142.72;;;4.03;45.74
74544;BME280;63016;55.030;38.710;2023-05-07T03:45:01;101152.59;;;4.11;45.98
74544;BME280;63016;55.030;38.710;2023-05-07T03:47:26;101147.31;;;4.12;45.87
74544;BME280;63016;55.030;38.710;2023-05-07T03:49:52;101145.28;;;4.18;45.93
74544;BME280;63016;55.030;38.710;2023-05-07T03:52:19;101143.44;;;4.20;45.77
74544;BME280;63016;55.030;38.710;2023-05-07T03:54:49;101148.03;;;4.29;45.22
74544;BME280;63016;55.030;38.710;2023-05-07T03:57:14;101145.38;;;4.30;45.40
74544;BME280;63016;55.030;38.710;2023-05-07T03:59:40;101158.63;;;4.38;45.79
74544;BME280;63016;55.030;38.710;2023-05-07T04:02:05;101149.88;;;4.41;45.67
74544;BME280;63016;55.030;38.710;2023-05-07T04:04:31;101158.72;;;4.51;45.53
74544;BME280;63016;55.030;38.710;2023-05-07T04:06:58;101147.34;;;4.54;46.09
74544;BME280;63016;55.030;38.710;2023-05-07T04:09:24;101157.94;;;4.63;45.78
74544;BME280;63016;55.030;38.710;2023-05-07T04:11:50;101154.16;;;4.69;45.95
74544;BME280;63016;55.030;38.710;2023-05-07T04:14:15;101164.09;;;4.75;45.56
74544;BME280;63016;55.030;38.710;2023-05-07T04:16:41;101170.53;;;4.82;45.39
74544;BME280;63016;55.030;38.710;2023-05-07T04:19:07;101163.13;;;4.90;45.67
74544;BME280;63016;55.030;38.710;2023-05-07T04:21:32;101157.56;;;4.97;45.68
74544;BME280;63016;55.030;38.710;2023-05-07T04:23:58;101164.53;;;5.09;45.58
74544;BME280;63016;55.030;38.710;2023-05-07T04:26:23;101169.13;;;5.18;46.17
74544;BME280;63016;55.030;38.710;2023-05-07T04:28:49;101168.59;;;5.26;46.00
74544;BME280;63016;55.030;38.710;2023-05-07T04:31:15;101169.78;;;5.34;46.05
74544;BME280;63016;55.030;38.710;2023-05-07T04:33:40;101170.41;;;5.38;46.39
74544;BME280;63016;55.030;38.710;2023-05-07T04:36:06;101172.81;;;5.54;46.10
74544;BME280;63016;55.030;38.710;2023-05-07T04:38:32;101175.50;;;5.65;45.85
74544;BME280;63016;55.030;38.710;2023-05-07T04:41:08;101161.66;;;5.66;46.15
74544;BME280;63016;55.030;38.710;2023-05-07T04:43:34;101182.03;;;5.83;46.05
74544;BME280;63016;55.030;38.710;2023-05-07T04:46:00;101186.44;;;5.96;46.39
74544;BME280;63016;55.030;38.710;2023-05-07T04:48:25;101188.28;;;6.06;45.93
74544;BME280;63016;55.030;38.710;2023-05-07T04:50:52;101192.84;;;6.15;46.12
74544;BME280;63016;55.030;38.710;2023-05-07T04:53:17;101191.16;;;6.27;45.60
74544;BME280;63016;55.030;38.710;2023-05-07T04:55:44;101188.88;;;6.35;45.77
74544;BME280;63016;55.030;38.710;2023-05-07T04:58:10;101190.84;;;6.44;45.88
74544;BME280;63016;55.030;38.710;2023-05-07T05:00:36;101189.47;;;6.52;46.00
74544;BME280;63016;55.030;38.710;2023-05-07T05:03:01;101197.84;;;6.68;45.82
74544;BME280;63016;55.030;38.710;2023-05-07T05:05:27;101197.91;;;6.79;45.75
74544;BME280;63016;55.030;38.710;2023-05-07T05:07:52;101197.75;;;6.93;45.76
74544;BME280;63016;55.030;38.710;2023-05-07T05:10:18;101189.19;;;7.04;45.96
74544;BME280;63016;55.030;38.710;2023-05-07T05:12:43;101190.50;;;7.10;45.62
74544;BME280;63016;55.030;38.710;2023-05-07T05:15:11;101186.19;;;7.21;45.85
74544;BME280;63016;55.030;38.710;2023-05-07T05:17:36;101189.91;;;7.30;45.66
74544;BME280;63016;55.030;38.710;2023-05-07T05:20:02;101180.91;;;7.34;45.25
74544;BME280;63016;55.030;38.710;2023-05-07T05:22:29;101194.44;;;7.51;45.48
74544;BME280;63016;55.030;38.710;2023-05-07T05:24:56;101184.91;;;7.62;45.67
74544;BME280;63016;55.030;38.710;2023-05-07T05:27:21;101188.09;;;7.77;45.17
74544;BME280;63016;55.030;38.710;2023-05-07T05:29:47;101196.66;;;7.90;45.30
74544;BME280;63016;55.030;38.710;2023-05-07T05:32:12;101194.28;;;8.10;45.80
74544;BME280;63016;55.030;38.710;2023-05-07T05:34:38;101197.28;;;8.39;46.25
74544;BME280;63016;55.030;38.710;2023-05-07T05:37:03;101198.69;;;8.54;45.40
74544;BME280;63016;55.030;38.710;2023-05-07T05:39:29;101187.69;;;8.62;45.67
74544;BME280;63016;55.030;38.710;2023-05-07T05:41:54;101200.53;;;8.86;45.46
74544;BME280;63016;55.030;38.710;2023-05-07T05:44:20;101199.16;;;9.02;45.37
74544;BME280;63016;55.030;38.710;2023-05-07T05:46:45;101188.13;;;9.10;45.40
74544;BME280;63016;55.030;38.710;2023-05-07T05:49:11;101175.44;;;9.17;45.44
74544;BME280;63016;55.030;38.710;2023-05-07T05:51:36;101200.75;;;9.47;44.70
74544;BME280;63016;55.030;38.710;2023-05-07T05:54:02;101188.50;;;9.59;44.49
74544;BME280;63016;55.030;38.710;2023-05-07T05:56:27;101199.00;;;9.68;44.55
74544;BME280;63016;55.030;38.710;2023-05-07T05:58:53;101189.00;;;9.73;44.06
74544;BME280;63016;55.030;38.710;2023-05-07T06:01:18;101181.25;;;9.83;44.11
74544;BME280;63016;55.030;38.710;2023-05-07T06:03:44;101200.56;;;10.01;44.25
74544;BME280;63016;55.030;38.710;2023-05-07T06:06:10;101209.69;;;10.17;44.70
74544;BME280;63016;55.030;38.710;2023-05-07T06:08:35;101206.47;;;10.34;44.84
74544;BME280;63016;55.030;38.710;2023-05-07T06:11:02;101211.06;;;10.51;44.11
74544;BME280;63016;55.030;38.710;2023-05-07T06:13:28;101210.69;;;10.56;43.74
74544;BME280;63016;55.030;38.710;2023-05-07T06:15:53;101218.91;;;10.51;43.44
74544;BME280;63016;55.030;38.710;2023-05-07T06:18:19;101215.63;;;10.49;43.63
74544;BME280;63016;55.030;38.710;2023-05-07T06:20:44;101210.09;;;10.52;44.15
74544;BME280;63016;55.030;38.710;2023-05-07T06:23:10;101206.03;;;10.60;44.26
74544;BME280;63016;55.030;38.710;2023-05-07T06:25:35;101197.78;;;10.64;44.19
74544;BME280;63016;55.030;38.710;2023-05-07T06:28:01;101225.84;;;10.81;43.59
74544;BME280;63016;55.030;38.710;2023-05-07T06:30:26;101226.97;;;10.89;43.75
74544;BME280;63016;55.030;38.710;2023-05-07T06:32:52;101218.44;;;10.96;44.31
74544;BME280;63016;55.030;38.710;2023-05-07T06:35:17;101212.41;;;11.15;44.26
74544;BME280;63016;55.030;38.710;2023-05-07T06:37:43;101208.97;;;11.24;43.97
74544;BME280;63016;55.030;38.710;2023-05-07T06:40:09;101216.56;;;11.27;43.36
74544;BME280;63016;55.030;38.710;2023-05-07T06:42:36;101223.16;;;11.31;43.03
74544;BME280;63016;55.030;38.710;2023-05-07T06:45:02;101222.31;;;11.31;43.13
74544;BME280;63016;55.030;38.710;2023-05-07T06:47:28;101236.09;;;11.43;43.64
74544;BME280;63016;55.030;38.710;2023-05-07T06:49:53;101222.19;;;11.52;43.68
74544;BME280;63016;55.030;38.710;2023-05-07T06:52:19;101220.94;;;11.66;43.91
74544;BME280;63016;55.030;38.710;2023-05-07T06:54:44;101223.66;;;11.83;43.44
74544;BME280;63016;55.030;38.710;2023-05-07T06:57:10;101232.72;;;11.99;43.72
74544;BME280;63016;55.030;38.710;2023-05-07T06:59:35;101220.06;;;12.04;43.51
74544;BME280;63016;55.030;38.710;2023-05-07T07:02:01;101225.53;;;12.11;43.06
74544;BME280;63016;55.030;38.710;2023-05-07T07:04:26;101219.47;;;12.10;42.65
74544;BME280;63016;55.030;38.710;2023-05-07T07:06:54;101213.03;;;12.04;42.20
74544;BME280;63016;55.030;38.710;2023-05-07T07:09:19;101216.59;;;12.03;42.51
74544;BME280;63016;55.030;38.710;2023-05-07T07:11:45;101215.66;;;12.04;42.92
74544;BME280;63016;55.030;38.710;2023-05-07T07:14:10;101209.03;;;12.00;42.38
74544;BME280;63016;55.030;38.710;2023-05-07T07:16:36;101218.97;;;11.97;42.74
74544;BME280;63016;55.030;38.710;2023-05-07T07:19:01;101224.22;;;11.87;42.17
74544;BME280;63016;55.030;38.710;2023-05-07T07:21:27;101213.50;;;11.71;42.25
74544;BME280;63016;55.030;38.710;2023-05-07T07:23:52;101220.53;;;11.70;42.79
74544;BME280;63016;55.030;38.710;2023-05-07T07:26:18;101222.84;;;11.73;42.26
74544;BME280;63016;55.030;38.710;2023-05-07T07:28:44;101212.94;;;11.77;41.99
74544;BME280;63016;55.030;38.710;2023-05-07T07:31:11;101218.00;;;11.78;42.52
74544;BME280;63016;55.030;38.710;2023-05-07T07:33:36;101210.75;;;11.82;41.98
74544;BME280;63016;55.030;38.710;2023-05-07T07:36:02;101218.81;;;11.79;41.84
74544;BME280;63016;55.030;38.710;2023-05-07T07:38:31;101216.13;;;11.71;40.94
74544;BME280;63016;55.030;38.710;2023-05-07T07:40:56;101222.03;;;11.53;41.04
74544;BME280;63016;55.030;38.710;2023-05-07T07:43:22;101217.78;;;11.33;40.36
74544;BME280;63016;55.030;38.710;2023-05-07T07:45:47;101213.13;;;11.17;41.09
74544;BME280;63016;55.030;38.710;2023-05-07T07:48:14;101216.25;;;11.11;41.52
74544;BME280;63016;55.030;38.710;2023-05-07T07:50:39;101218.88;;;11.11;42.01
74544;BME280;63016;55.030;38.710;2023-05-07T07:53:05;101214.47;;;11.21;42.08
74544;BME280;63016;55.030;38.710;2023-05-07T07:55:30;101216.56;;;11.27;41.70
74544;BME280;63016;55.030;38.710;2023-05-07T07:57:57;101204.72;;;11.33;41.67
74544;BME280;63016;55.030;38.710;2023-05-07T08:00:22;101207.47;;;11.41;41.75
74544;BME280;63016;55.030;38.710;2023-05-07T08:02:48;101219.28;;;11.45;41.69
74544;BME280;63016;55.030;38.710;2023-05-07T08:05:14;101218.47;;;11.35;40.06
74544;BME280;63016;55.030;38.710;2023-05-07T08:07:40;101215.59;;;11.19;40.19
74544;BME280;63016;55.030;38.710;2023-05-07T08:10:06;101208.72;;;11.08;41.17
74544;BME280;63016;55.030;38.710;2023-05-07T08:12:32;101208.00;;;11.16;41.71
74544;BME280;63016;55.030;38.710;2023-05-07T08:14:57;101199.22;;;11.26;41.97
74544;BME280;63016;55.030;38.710;2023-05-07T08:17:23;101196.75;;;11.35;41.92
74544;BME280;63016;55.030;38.710;2023-05-07T08:19:49;101211.19;;;11.39;41.19
74544;BME280;63016;55.030;38.710;2023-05-07T08:22:14;101219.28;;;11.36;41.03
74544;BME280;63016;55.030;38.710;2023-05-07T08:24:40;101208.16;;;11.24;40.11
74544;BME280;63016;55.030;38.710;2023-05-07T08:27:06;101200.59;;;11.11;41.09
74544;BME280;63016;55.030;38.710;2023-05-07T08:29:31;101203.91;;;11.13;42.76
74544;BME280;63016;55.030;38.710;2023-05-07T08:31:57;101212.81;;;11.20;43.43
74544;BME280;63016;55.030;38.710;2023-05-07T08:34:22;101215.44;;;11.30;42.60
74544;BME280;63016;55.030;38.710;2023-05-07T08:36:48;101206.38;;;11.34;43.05
74544;BME280;63016;55.030;38.710;2023-05-07T08:39:15;101202.78;;;11.35;42.88
74544;BME280;63016;55.030;38.710;2023-05-07T08:41:44;101195.91;;;11.34;41.94
74544;BME280;63016;55.030;38.710;2023-05-07T08:44:14;101198.13;;;11.39;42.07
74544;BME280;63016;55.030;38.710;2023-05-07T08:46:42;101200.16;;;11.45;42.16
74544;BME280;63016;55.030;38.710;2023-05-07T08:49:12;101197.03;;;11.51;41.67
74544;BME280;63016;55.030;38.710;2023-05-07T08:51:37;101192.19;;;11.56;41.98
74544;BME280;63016;55.030;38.710;2023-05-07T08:54:06;101199.88;;;11.57;40.07
74544;BME280;63016;55.030;38.710;2023-05-07T08:56:32;101189.72;;;11.45;40.84
74544;BME280;63016;55.030;38.710;2023-05-07T08:58:58;101201.13;;;11.44;41.38
74544;BME280;63016;55.030;38.710;2023-05-07T09:01:25;101197.28;;;11.38;41.03
74544;BME280;63016;55.030;38.710;2023-05-07T09:03:51;101190.00;;;11.42;41.87
74544;BME280;63016;55.030;38.710;2023-05-07T09:06:19;101174.19;;;11.43;41.76
74544;BME280;63016;55.030;38.710;2023-05-07T09:08:53;101191.63;;;11.62;40.79
74544;BME280;63016;55.030;38.710;2023-05-07T09:11:20;101198.91;;;11.58;40.54
74544;BME280;63016;55.030;38.710;2023-05-07T09:13:46;101190.81;;;11.52;40.36
74544;BME280;63016;55.030;38.710;2023-05-07T09:16:13;101183.81;;;11.43;40.23
74544;BME280;63016;55.030;38.710;2023-05-07T09:18:42;101199.91;;;11.48;40.81
74544;BME280;63016;55.030;38.710;2023-05-07T09:21:14;101201.41;;;11.50;40.57
74544;BME280;63016;55.030;38.710;2023-05-07T09:23:41;101194.25;;;11.52;40.50
74544;BME280;63016;55.030;38.710;2023-05-07T09:26:07;101192.19;;;11.56;40.28
74544;BME280;63016;55.030;38.710;2023-05-07T09:28:41;101201.13;;;11.63;40.31
74544;BME280;63016;55.030;38.710;2023-05-07T09:31:08;101206.91;;;11.67;40.72
74544;BME280;63016;55.030;38.710;2023-05-07T09:33:34;101203.47;;;11.66;39.98
74544;BME280;63016;55.030;38.710;2023-05-07T09:36:10;101200.28;;;11.63;39.63
74544;BME280;63016;55.030;38.710;2023-05-07T09:38:37;101199.75;;;11.59;40.40
74544;BME280;63016;55.030;38.710;2023-05-07T09:41:12;101214.59;;;11.58;40.66
74544;BME280;63016;55.030;38.710;2023-05-07T09:43:38;101206.22;;;11.55;39.86
74544;BME280;63016;55.030;38.710;2023-05-07T09:46:12;101204.72;;;11.52;39.37
74544;BME280;63016;55.030;38.710;2023-05-07T09:48:39;101191.25;;;11.47;40.40
74544;BME280;63016;55.030;38.710;2023-05-07T09:51:39;101198.66;;;11.52;39.68
74544;BME280;63016;55.030;38.710;2023-05-07T09:54:00;101198.25;;;11.56;40.02
74544;BME280;63016;55.030;38.710;2023-05-07T09:56:29;101184.63;;;11.53;40.25
74544;BME280;63016;55.030;38.710;2023-05-07T09:59:00;101192.72;;;11.59;39.51
74544;BME280;63016;55.030;38.710;2023-05-07T10:01:26;101203.19;;;11.59;39.79
74544;BME280;63016;55.030;38.710;2023-05-07T10:03:53;101208.13;;;11.63;39.85
74544;BME280;63016;55.030;38.710;2023-05-07T10:06:20;101195.22;;;11.61;40.01
74544;BME280;63016;55.030;38.710;2023-05-07T10:08:46;101213.09;;;11.66;39.98
74544;BME280;63016;55.030;38.710;2023-05-07T10:11:12;101201.78;;;11.65;40.48
74544;BME280;63016;55.030;38.710;2023-05-07T10:13:38;101200.28;;;11.63;40.15
74544;BME280;63016;55.030;38.710;2023-05-07T10:16:04;101204.28;;;11.57;40.22
74544;BME280;63016;55.030;38.710;2023-05-07T10:18:31;101212.69;;;11.61;39.98
74544;BME280;63016;55.030;38.710;2023-05-07T10:21:08;101191.78;;;11.61;39.69
74544;BME280;63016;55.030;38.710;2023-05-07T10:23:36;101194.78;;;11.66;40.17
74544;BME280;63016;55.030;38.710;2023-05-07T10:26:06;101208.81;;;11.65;39.27
74544;BME280;63016;55.030;38.710;2023-05-07T10:28:36;101196.56;;;11.55;39.10
74544;BME280;63016;55.030;38.710;2023-05-07T10:33:36;101201.38;;;11.60;39.71
74544;BME280;63016;55.030;38.710;2023-05-07T10:36:03;101200.44;;;11.61;39.55
74544;BME280;63016;55.030;38.710;2023-05-07T10:38:30;101204.56;;;11.64;39.70
74544;BME280;63016;55.030;38.710;2023-05-07T10:40:56;101203.31;;;11.68;39.97
74544;BME280;63016;55.030;38.710;2023-05-07T10:43:21;101206.31;;;11.73;39.57
74544;BME280;63016;55.030;38.710;2023-05-07T10:46:17;101203.72;;;11.73;40.80
74544;BME280;63016;55.030;38.710;2023-05-07T10:51:37;101212.38;;;11.73;39.78
74544;BME280;63016;55.030;38.710;2023-05-07T10:56:39;101201.91;;;11.73;39.94
74544;BME280;63016;55.030;38.710;2023-05-07T11:02:02;101197.41;;;11.85;40.12
74544;BME280;63016;55.030;38.710;2023-05-07T11:04:29;101197.50;;;11.93;40.14
74544;BME280;63016;55.030;38.710;2023-05-07T11:15:08;101200.31;;;12.19;39.47
74544;BME280;63016;55.030;38.710;2023-05-07T11:17:51;101205.38;;;12.21;39.64
74544;BME280;63016;55.030;38.710;2023-05-07T11:20:17;101184.84;;;12.26;39.64
74544;BME280;63016;55.030;38.710;2023-05-07T11:22:43;101194.44;;;12.35;39.26
74544;BME280;63016;55.030;38.710;2023-05-07T11:25:09;101189.59;;;12.40;39.44
74544;BME280;63016;55.030;38.710;2023-05-07T11:27:34;101199.78;;;12.43;39.14
74544;BME280;63016;55.030;38.710;2023-05-07T11:30:00;101190.56;;;12.39;38.72
74544;BME280;63016;55.030;38.710;2023-05-07T11:32:30;101211.50;;;12.39;38.84
74544;BME280;63016;55.030;38.710;2023-05-07T11:34:58;101207.53;;;12.35;38.52
74544;BME280;63016;55.030;38.710;2023-05-07T11:37:26;101212.09;;;12.33;38.81
74544;BME280;63016;55.030;38.710;2023-05-07T11:40:12;101203.41;;;12.32;39.12
74544;BME280;63016;55.030;38.710;2023-05-07T11:42:39;101206.44;;;12.28;38.55
74544;BME280;63016;55.030;38.710;2023-05-07T11:45:07;101205.91;;;12.34;38.72
74544;BME280;63016;55.030;38.710;2023-05-07T11:47:33;101214.56;;;12.34;38.07
74544;BME280;63016;55.030;38.710;2023-05-07T11:50:03;101208.63;;;12.32;38.13
74544;BME280;63016;55.030;38.710;2023-05-07T11:52:30;101203.72;;;12.29;38.68
74544;BME280;63016;55.030;38.710;2023-05-07T11:54:57;101206.16;;;12.31;38.72
74544;BME280;63016;55.030;38.710;2023-05-07T11:57:24;101206.56;;;12.36;38.69
74544;BME280;63016;55.030;38.710;2023-05-07T11:59:54;101207.09;;;12.40;38.57
74544;BME280;63016;55.030;38.710;2023-05-07T12:02:19;101208.47;;;12.44;38.55
74544;BME280;63016;55.030;38.710;2023-05-07T12:04:45;101207.50;;;12.45;38.35
74544;BME280;63016;55.030;38.710;2023-05-07T12:07:14;101197.19;;;12.43;38.41
74544;BME280;63016;55.030;38.710;2023-05-07T12:09:41;101208.31;;;12.45;37.84
74544;BME280;63016;55.030;38.710;2023-05-07T12:12:07;101214.25;;;12.38;37.69
74544;BME280;63016;55.030;38.710;2023-05-07T12:14:33;101212.53;;;12.28;37.55
74544;BME280;63016;55.030;38.710;2023-05-07T12:17:03;101208.81;;;12.21;37.74
74544;BME280;63016;55.030;38.710;2023-05-07T12:19:30;101206.63;;;12.17;38.10
74544;BME280;63016;55.030;38.710;2023-05-07T12:21:56;101209.09;;;12.18;38.33
74544;BME280;63016;55.030;38.710;2023-05-07T12:24:22;101211.59;;;12.20;37.86
74544;BME280;63016;55.030;38.710;2023-05-07T12:26:48;101214.50;;;12.17;37.64
74544;BME280;63016;55.030;38.710;2023-05-07T12:29:14;101214.53;;;12.07;37.69
74544;BME280;63016;55.030;38.710;2023-05-07T12:31:43;101213.31;;;12.01;37.82
74544;BME280;63016;55.030;38.710;2023-05-07T12:34:11;101207.41;;;11.99;38.25
74544;BME280;63016;55.030;38.710;2023-05-07T12:36:40;101191.31;;;11.94;38.22
74544;BME280;63016;55.030;38.710;2023-05-07T12:39:09;101201.00;;;12.12;37.91
74544;BME280;63016;55.030;38.710;2023-05-07T12:41:54;101198.34;;;12.21;38.89
74544;BME280;63016;55.030;38.710;2023-05-07T12:44:30;101201.22;;;12.28;37.56
74544;BME280;63016;55.030;38.710;2023-05-07T12:46:56;101203.56;;;12.31;37.76
74544;BME280;63016;55.030;38.710;2023-05-07T12:49:23;101202.06;;;12.28;37.59
74544;BME280;63016;55.030;38.710;2023-05-07T12:51:49;101192.16;;;12.22;37.67
74544;BME280;63016;55.030;38.710;2023-05-07T12:54:34;101201.38;;;12.26;38.41
74544;BME280;63016;55.030;38.710;2023-05-07T12:57:07;101203.16;;;12.26;38.04
74544;BME280;63016;55.030;38.710;2023-05-07T12:59:37;101195.31;;;12.26;37.76
74544;BME280;63016;55.030;38.710;2023-05-07T13:02:03;101200.81;;;12.23;37.83